Time;durP1;ratioP1;P1;durP2;ratioP2;P2;SDS_P1;SDS_P2;PMS_P1;PMS_P2;Temp;Humidity;BMP_temperature;BMP_pressure;BME280_temperature;BME280_humidity;BME280_pressure;Samples;Min_cycle;Max_cycle;Signal;HPM_P1;HPM_P2
2023/10/26 00:02:00;;;;;;;23.93;12.33;;;;;;;;;;5114393;27;20465;-69
2023/10/26 00:04:26;;;;;;;20.67;12.43;;;;;;;;;;5115194;27;20484;-70
2023/10/26 00:06:52;;;;;;;24.27;11.33;;;;;;;;;;5125095;27;20482;-70
2023/10/26 00:09:19;;;;;;;23.43;12.10;;;;;;;;;;5117439;27;20453;-70
2023/10/26 00:11:48;;;;;;;27.17;12.47;;;;;;;;;;5118154;27;20577;-70
2023/10/26 00:14:15;;;;;;;22.50;10.93;;;;;;;;;;5121447;27;20654;-70
2023/10/26 00:16:41;;;;;;;30.87;13.27;;;;;;;;;;5117231;27;20481;-70
2023/10/26 00:19:08;;;;;;;34.23;13.40;;;;;;;;;;5127908;27;20509;-70
2023/10/26 00:21:34;;;;;;;35.17;13.33;;;;;;;;;;5124392;27;20473;-70
2023/10/26 00:24:01;;;;;;;37.90;13.70;;;;;;;;;;5116525;27;20558;-69
2023/10/26 00:26:27;;;;;;;30.50;13.23;;;;;;;;;;5118727;28;20518;-69
2023/10/26 00:28:55;;;;;;;39.70;13.80;;;;;;;;;;5115779;28;20529;-70
2023/10/26 00:31:21;;;;;;;27.30;12.10;;;;;;;;;;5128630;27;20558;-70
2023/10/26 00:33:48;;;;;;;40.57;14.87;;;;;;;;;;5119010;27;20493;-70
2023/10/26 00:36:14;;;;;;;36.87;15.23;;;;;;;;;;5115121;27;20487;-70
2023/10/26 00:38:41;;;;;;;33.63;15.80;;;;;;;;;;5118026;27;20443;-69
2023/10/26 00:41:07;;;;;;;44.63;16.63;;;;;;;;;;5126369;27;20482;-69
2023/10/26 00:43:34;;;;;;;36.77;15.33;;;;;;;;;;5119835;27;20438;-69
2023/10/26 00:46:02;;;;;;;36.73;14.63;;;;;;;;;;5114153;27;21050;-69
2023/10/26 00:48:28;;;;;;;38.70;17.23;;;;;;;;;;5111242;27;20447;-69
2023/10/26 00:50:55;;;;;;;43.93;16.67;;;;;;;;;;5115590;28;20500;-70
2023/10/26 00:53:21;;;;;;;34.40;15.20;;;;;;;;;;5126650;27;20557;-70
2023/10/26 00:55:49;;;;;;;41.63;17.00;;;;;;;;;;5121923;27;20468;-70
2023/10/26 00:58:16;;;;;;;38.37;15.57;;;;;;;;;;5115028;27;20522;-70
2023/10/26 01:00:42;;;;;;;38.43;15.17;;;;;;;;;;5108070;27;20782;-71
2023/10/26 01:03:10;;;;;;;39.77;14.47;;;;;;;;;;5116804;27;20549;-70
2023/10/26 01:05:37;;;;;;;27.67;13.87;;;;;;;;;;5114269;27;20546;-70
2023/10/26 01:08:03;;;;;;;39.50;15.07;;;;;;;;;;5121663;27;21166;-70
2023/10/26 01:10:30;;;;;;;38.53;14.47;;;;;;;;;;5135821;27;20460;-70
2023/10/26 01:12:56;;;;;;;26.57;14.17;;;;;;;;;;5130986;27;20500;-70
2023/10/26 01:15:24;;;;;;;37.63;14.17;;;;;;;;;;5123830;27;20528;-70
2023/10/26 01:17:50;;;;;;;28.23;13.70;;;;;;;;;;5122106;27;20902;-69
2023/10/26 01:20:19;;;;;;;35.03;14.37;;;;;;;;;;5123633;27;20505;-70
2023/10/26 01:22:47;;;;;;;39.00;14.90;;;;;;;;;;5132762;27;20548;-70
2023/10/26 01:25:13;;;;;;;34.83;15.50;;;;;;;;;;5119074;27;20493;-70
2023/10/26 01:27:39;;;;;;;27.60;14.70;;;;;;;;;;5134257;27;20468;-70
2023/10/26 01:30:06;;;;;;;34.17;14.93;;;;;;;;;;5128312;27;20477;-70
2023/10/26 01:32:33;;;;;;;41.80;17.00;;;;;;;;;;5128217;27;20478;-70
2023/10/26 01:34:59;;;;;;;38.50;15.37;;;;;;;;;;5130596;27;20497;-70
2023/10/26 01:37:26;;;;;;;35.03;15.67;;;;;;;;;;5127257;27;20779;-70
2023/10/26 01:39:53;;;;;;;39.60;14.50;;;;;;;;;;5116904;27;20443;-70
2023/10/26 01:42:20;;;;;;;37.63;15.80;;;;;;;;;;5123394;27;20522;-70
2023/10/26 01:44:46;;;;;;;32.10;14.73;;;;;;;;;;5125648;27;20456;-70
2023/10/26 01:47:13;;;;;;;41.03;16.33;;;;;;;;;;5131233;27;20525;-70
2023/10/26 01:49:39;;;;;;;39.23;14.67;;;;;;;;;;5113083;28;20455;-70
2023/10/26 01:52:06;;;;;;;39.20;15.07;;;;;;;;;;5127058;27;20878;-70
2023/10/26 01:54:32;;;;;;;36.80;14.57;;;;;;;;;;5135838;27;20437;-70
2023/10/26 01:57:02;;;;;;;32.90;14.87;;;;;;;;;;5130698;27;20489;-70
2023/10/26 01:59:29;;;;;;;34.67;13.93;;;;;;;;;;5114020;28;21028;-70
2023/10/26 02:01:55;;;;;;;36.60;14.50;;;;;;;;;;5137004;28;20445;-70
2023/10/26 02:04:21;;;;;;;47.23;17.47;;;;;;;;;;5110373;28;20750;-70
2023/10/26 02:06:48;;;;;;;38.30;15.57;;;;;;;;;;5111741;28;20545;-70
2023/10/26 02:09:14;;;;;;;34.70;14.40;;;;;;;;;;5119482;28;20491;-69
2023/10/26 02:11:40;;;;;;;41.80;16.17;;;;;;;;;;5123788;28;20506;-70
2023/10/26 02:14:09;;;;;;;37.40;16.40;;;;;;;;;;5127293;28;20545;-70
2023/10/26 02:16:35;;;;;;;32.73;14.30;;;;;;;;;;5122268;28;20474;-70
2023/10/26 02:19:01;;;;;;;38.13;16.50;;;;;;;;;;5118087;28;20540;-70
2023/10/26 02:21:28;;;;;;;36.10;15.40;;;;;;;;;;5122397;28;20858;-69
2023/10/26 02:23:54;;;;;;;40.37;15.93;;;;;;;;;;5127518;28;20473;-69
2023/10/26 02:26:21;;;;;;;36.57;15.60;;;;;;;;;;5118024;28;20496;-69
2023/10/26 02:28:47;;;;;;;36.03;15.90;;;;;;;;;;5119760;28;20434;-69
2023/10/26 02:31:16;;;;;;;36.23;15.13;;;;;;;;;;5119112;28;20514;-69
2023/10/26 02:33:43;;;;;;;38.57;16.30;;;;;;;;;;5119094;28;20505;-70
2023/10/26 02:36:09;;;;;;;34.10;13.70;;;;;;;;;;5123784;28;20453;-70
2023/10/26 02:38:36;;;;;;;30.50;14.67;;;;;;;;;;5125674;28;20462;-70
2023/10/26 02:41:03;;;;;;;32.47;13.97;;;;;;;;;;5117690;28;20511;-70
2023/10/26 02:43:29;;;;;;;33.70;14.30;;;;;;;;;;5131095;28;20457;-70
2023/10/26 02:46:00;;;;;;;29.90;12.90;;;;;;;;;;5117515;28;20507;-70
2023/10/26 02:48:28;;;;;;;29.13;13.10;;;;;;;;;;5101678;28;20901;-70
2023/10/26 02:50:54;;;;;;;29.10;13.50;;;;;;;;;;5125859;28;20501;-70
2023/10/26 02:53:20;;;;;;;28.57;12.80;;;;;;;;;;5131506;27;21352;-70
2023/10/26 02:55:47;;;;;;;28.00;14.10;;;;;;;;;;5122045;27;20537;-70
2023/10/26 02:58:13;;;;;;;30.07;12.77;;;;;;;;;;5123616;27;20532;-70
2023/10/26 03:00:40;;;;;;;26.03;12.40;;;;;;;;;;5121047;28;20488;-70
2023/10/26 03:03:06;;;;;;;28.43;13.50;;;;;;;;;;5125072;27;20525;-70
2023/10/26 03:05:35;;;;;;;26.27;12.50;;;;;;;;;;5127081;27;20513;-70
2023/10/26 03:08:02;;;;;;;24.80;12.60;;;;;;;;;;5120096;28;20481;-70
2023/10/26 03:10:28;;;;;;;27.23;12.50;;;;;;;;;;5111993;27;20485;-69
2023/10/26 03:12:55;;;;;;;20.03;10.87;;;;;;;;;;5115025;28;20485;-70
2023/10/26 03:15:21;;;;;;;18.97;10.67;;;;;;;;;;5122807;27;20450;-70
2023/10/26 03:17:47;;;;;;;24.30;10.30;;;;;;;;;;5114285;28;20981;-70
2023/10/26 03:20:14;;;;;;;18.17;9.50;;;;;;;;;;5116994;27;20464;-70
2023/10/26 03:22:42;;;;;;;18.23;10.23;;;;;;;;;;5131125;27;20537;-70
2023/10/26 03:25:13;;;;;;;18.87;9.80;;;;;;;;;;5129386;27;20517;-70
2023/10/26 03:27:40;;;;;;;19.03;11.27;;;;;;;;;;5130786;27;20437;-70
2023/10/26 03:30:07;;;;;;;18.60;9.33;;;;;;;;;;5125993;27;20485;-69
2023/10/26 03:32:33;;;;;;;18.37;11.13;;;;;;;;;;5121422;27;20513;-70
2023/10/26 03:35:00;;;;;;;17.43;10.60;;;;;;;;;;5114079;27;20480;-69
2023/10/26 03:37:27;;;;;;;17.63;9.63;;;;;;;;;;5110150;27;20493;-70
2023/10/26 03:39:54;;;;;;;17.60;9.87;;;;;;;;;;5120907;27;20909;-70
2023/10/26 03:42:21;;;;;;;22.40;11.50;;;;;;;;;;5120072;28;20454;-69
2023/10/26 03:44:47;;;;;;;19.17;11.53;;;;;;;;;;5113619;28;20515;-69
2023/10/26 03:47:14;;;;;;;18.20;10.00;;;;;;;;;;5124792;27;20479;-70
2023/10/26 03:49:40;;;;;;;18.00;10.40;;;;;;;;;;5132229;27;20439;-69
2023/10/26 03:52:07;;;;;;;15.30;8.90;;;;;;;;;;5118291;27;20553;-69
2023/10/26 03:54:33;;;;;;;15.80;9.30;;;;;;;;;;5119980;28;20470;-69
2023/10/26 03:57:01;;;;;;;15.03;8.73;;;;;;;;;;5129613;27;20481;-69
2023/10/26 03:59:27;;;;;;;14.77;9.07;;;;;;;;;;5118503;27;20483;-69
2023/10/26 04:01:53;;;;;;;18.27;10.57;;;;;;;;;;5118578;27;21313;-69
2023/10/26 04:04:20;;;;;;;13.60;9.00;;;;;;;;;;5126259;27;20489;-69
2023/10/26 04:06:46;;;;;;;12.40;8.60;;;;;;;;;;5120539;27;20482;-69
2023/10/26 04:09:13;;;;;;;15.00;8.50;;;;;;;;;;5129568;27;20963;-69
2023/10/26 04:11:42;;;;;;;13.77;8.50;;;;;;;;;;5117276;27;21017;-70
2023/10/26 04:14:11;;;;;;;10.67;7.80;;;;;;;;;;5126465;27;20469;-70
2023/10/26 04:16:37;;;;;;;14.83;8.40;;;;;;;;;;5117745;28;20509;-70
2023/10/26 04:19:03;;;;;;;15.80;9.73;;;;;;;;;;5130941;27;20462;-70
2023/10/26 04:21:30;;;;;;;17.80;11.03;;;;;;;;;;5116998;28;20953;-70
2023/10/26 04:23:57;;;;;;;13.47;9.00;;;;;;;;;;5110415;28;20481;-69
2023/10/26 04:26:24;;;;;;;19.10;10.90;;;;;;;;;;5113690;27;20451;-69
2023/10/26 04:28:50;;;;;;;16.80;11.37;;;;;;;;;;5114038;27;20451;-70
2023/10/26 04:31:18;;;;;;;16.20;11.03;;;;;;;;;;5112796;27;20533;-70
2023/10/26 04:33:44;;;;;;;15.60;9.87;;;;;;;;;;5111534;27;20504;-70
2023/10/26 04:36:11;;;;;;;16.63;11.00;;;;;;;;;;5120781;27;20469;-70
2023/10/26 04:38:37;;;;;;;14.20;9.70;;;;;;;;;;5124132;27;20445;-70
2023/10/26 04:41:05;;;;;;;18.50;11.63;;;;;;;;;;5117435;28;20911;-70
2023/10/26 04:43:31;;;;;;;20.17;12.00;;;;;;;;;;5127694;27;20441;-70
2023/10/26 04:45:58;;;;;;;16.40;11.10;;;;;;;;;;5120654;27;21014;-70
2023/10/26 04:48:26;;;;;;;21.80;12.63;;;;;;;;;;5123129;27;20446;-70
2023/10/26 04:50:52;;;;;;;18.23;11.47;;;;;;;;;;5128458;27;20499;-70
2023/10/26 04:53:19;;;;;;;16.33;10.20;;;;;;;;;;5128796;27;20508;-70
2023/10/26 04:55:45;;;;;;;19.67;11.77;;;;;;;;;;5124471;27;20466;-70
2023/10/26 04:58:11;;;;;;;19.80;11.90;;;;;;;;;;5115965;27;20450;-70
2023/10/26 05:00:38;;;;;;;17.47;12.10;;;;;;;;;;5115533;27;21014;-70
2023/10/26 05:03:04;;;;;;;16.50;10.60;;;;;;;;;;5126907;27;20527;-70
2023/10/26 05:05:32;;;;;;;16.10;11.03;;;;;;;;;;5117525;27;20537;-70
2023/10/26 05:07:58;;;;;;;14.37;10.50;;;;;;;;;;5116663;28;20497;-64
2023/10/26 05:10:25;;;;;;;13.87;9.90;;;;;;;;;;5114741;27;20442;-64
2023/10/26 05:12:52;;;;;;;17.73;11.30;;;;;;;;;;5120118;27;21075;-69
2023/10/26 05:15:19;;;;;;;12.57;9.07;;;;;;;;;;5109845;27;20473;-69
2023/10/26 05:17:45;;;;;;;15.40;10.20;;;;;;;;;;5109215;28;20462;-69
2023/10/26 05:20:12;;;;;;;14.97;9.77;;;;;;;;;;5113948;27;20472;-69
2023/10/26 05:22:40;;;;;;;12.90;8.60;;;;;;;;;;5109863;27;20480;-69
2023/10/26 05:25:08;;;;;;;12.37;8.57;;;;;;;;;;5110522;27;20521;-69
2023/10/26 05:27:34;;;;;;;8.63;6.70;;;;;;;;;;5113551;27;20469;-69
2023/10/26 05:30:01;;;;;;;11.37;7.33;;;;;;;;;;5114355;27;20486;-68
2023/10/26 05:32:27;;;;;;;10.83;6.50;;;;;;;;;;5118743;27;20509;-68
2023/10/26 05:34:54;;;;;;;7.97;6.03;;;;;;;;;;5113704;27;21362;-68
2023/10/26 05:37:20;;;;;;;8.47;6.00;;;;;;;;;;5116605;27;20490;-68
2023/10/26 05:39:48;;;;;;;7.30;5.23;;;;;;;;;;5111021;27;20985;-69
2023/10/26 05:42:15;;;;;;;7.70;5.80;;;;;;;;;;5119561;27;20445;-68
2023/10/26 05:44:41;;;;;;;6.93;4.90;;;;;;;;;;5117114;27;20503;-68
2023/10/26 05:47:08;;;;;;;5.60;4.67;;;;;;;;;;5118683;27;20447;-67
2023/10/26 05:49:34;;;;;;;5.57;4.63;;;;;;;;;;5116124;28;20510;-68
2023/10/26 05:52:01;;;;;;;10.47;5.90;;;;;;;;;;5120656;27;20645;-68
2023/10/26 05:54:28;;;;;;;7.33;5.50;;;;;;;;;;5113209;28;20475;-70
2023/10/26 05:56:55;;;;;;;6.90;5.23;;;;;;;;;;5118092;28;20537;-69
2023/10/26 05:59:22;;;;;;;7.03;5.40;;;;;;;;;;5119809;27;20514;-68
2023/10/26 06:01:48;;;;;;;7.77;5.70;;;;;;;;;;5130048;27;21118;-68
2023/10/26 06:04:15;;;;;;;6.07;5.10;;;;;;;;;;5121018;28;20442;-70
2023/10/26 06:06:41;;;;;;;6.73;5.00;;;;;;;;;;5118751;28;20514;-68
2023/10/26 06:09:08;;;;;;;7.77;6.17;;;;;;;;;;5120649;28;20461;-68
2023/10/26 06:11:34;;;;;;;7.47;5.47;;;;;;;;;;5128104;28;20502;-70
2023/10/26 06:14:02;;;;;;;7.93;5.77;;;;;;;;;;5114074;28;20941;-72
2023/10/26 06:16:28;;;;;;;5.90;5.07;;;;;;;;;;5110176;28;20451;-72
2023/10/26 06:18:55;;;;;;;5.83;5.23;;;;;;;;;;5110271;28;20557;-72
2023/10/26 06:21:21;;;;;;;5.80;4.87;;;;;;;;;;5116927;28;20890;-72
2023/10/26 06:23:48;;;;;;;6.60;5.23;;;;;;;;;;5107434;28;20538;-72
2023/10/26 06:26:14;;;;;;;6.03;4.57;;;;;;;;;;5118089;28;20458;-72
2023/10/26 06:28:41;;;;;;;5.23;4.73;;;;;;;;;;5119267;28;20513;-71
2023/10/26 06:31:14;;;;;;;5.47;4.83;;;;;;;;;;5116159;28;20466;-71
2023/10/26 06:33:41;;;;;;;6.10;4.97;;;;;;;;;;5134133;27;20517;-68
2023/10/26 06:36:08;;;;;;;6.80;4.63;;;;;;;;;;5125756;27;20506;-67
2023/10/26 06:38:34;;;;;;;5.40;4.47;;;;;;;;;;5128358;27;20473;-69
2023/10/26 06:41:00;;;;;;;5.47;4.27;;;;;;;;;;5126042;27;21066;-71
2023/10/26 06:43:27;;;;;;;5.03;4.47;;;;;;;;;;5123885;27;20473;-68
2023/10/26 06:45:53;;;;;;;6.30;4.80;;;;;;;;;;5120864;28;20472;-68
2023/10/26 06:48:21;;;;;;;6.27;5.10;;;;;;;;;;5121233;28;20545;-68
2023/10/26 06:50:48;;;;;;;5.80;4.93;;;;;;;;;;5124988;27;20466;-70
2023/10/26 06:53:14;;;;;;;6.10;5.50;;;;;;;;;;5112475;27;20528;-69
2023/10/26 06:55:41;;;;;;;6.30;4.90;;;;;;;;;;5118984;27;20473;-67
2023/10/26 06:58:07;;;;;;;4.87;4.37;;;;;;;;;;5114264;28;20208;-70
2023/10/26 07:00:35;;;;;;;6.33;5.47;;;;;;;;;;5118259;27;20454;-68
2023/10/26 07:03:01;;;;;;;6.10;5.10;;;;;;;;;;5135119;27;20452;-68
2023/10/26 07:05:29;;;;;;;5.50;5.00;;;;;;;;;;5127144;27;20493;-68
2023/10/26 07:07:59;;;;;;;5.47;4.63;;;;;;;;;;5119165;27;20446;-69
2023/10/26 07:10:25;;;;;;;7.77;5.87;;;;;;;;;;5117350;27;20442;-71
2023/10/26 07:12:52;;;;;;;5.07;4.57;;;;;;;;;;5130585;27;20497;-70
2023/10/26 07:15:18;;;;;;;6.30;5.60;;;;;;;;;;5120618;27;20516;-70
2023/10/26 07:17:45;;;;;;;7.57;5.97;;;;;;;;;;5115454;27;21399;-71
2023/10/26 07:20:13;;;;;;;7.90;6.40;;;;;;;;;;5131081;27;20457;-70
2023/10/26 07:22:42;;;;;;;7.17;5.67;;;;;;;;;;5122338;27;20457;-67
2023/10/26 07:25:09;;;;;;;6.10;5.47;;;;;;;;;;5119623;27;20973;-69
2023/10/26 07:27:35;;;;;;;6.30;5.20;;;;;;;;;;5132610;27;20485;-70
2023/10/26 07:30:02;;;;;;;8.00;5.90;;;;;;;;;;5126915;27;20946;-70
2023/10/26 07:32:28;;;;;;;6.83;5.43;;;;;;;;;;5122567;27;20526;-68
2023/10/26 07:34:55;;;;;;;7.03;5.93;;;;;;;;;;5125549;27;20501;-70
2023/10/26 07:37:21;;;;;;;10.97;6.17;;;;;;;;;;5123874;27;20458;-68
2023/10/26 07:39:49;;;;;;;6.37;5.63;;;;;;;;;;5126332;27;20506;-69
2023/10/26 07:42:16;;;;;;;6.67;5.70;;;;;;;;;;5119314;27;20480;-73
2023/10/26 07:44:42;;;;;;;7.47;6.00;;;;;;;;;;5123559;27;20468;-70
2023/10/26 07:47:08;;;;;;;6.20;5.10;;;;;;;;;;5123556;27;20458;-66
2023/10/26 07:49:35;;;;;;;5.27;4.77;;;;;;;;;;5131880;27;20862;-68
2023/10/26 07:52:01;;;;;;;6.23;4.90;;;;;;;;;;5126745;27;20483;-69
2023/10/26 07:54:28;;;;;;;6.20;5.40;;;;;;;;;;5123491;27;20509;-65
2023/10/26 07:56:55;;;;;;;5.70;5.10;;;;;;;;;;5133582;27;20445;-67
2023/10/26 07:59:22;;;;;;;5.53;4.70;;;;;;;;;;5122728;27;21316;-67
2023/10/26 08:01:48;;;;;;;6.67;5.53;;;;;;;;;;5117477;28;20572;-67
2023/10/26 08:04:15;;;;;;;6.03;5.43;;;;;;;;;;5129780;27;20470;-67
2023/10/26 08:06:41;;;;;;;6.10;5.43;;;;;;;;;;5121730;27;20442;-68
2023/10/26 08:09:07;;;;;;;5.63;5.03;;;;;;;;;;5124813;27;20477;-69
2023/10/26 08:11:34;;;;;;;6.47;5.43;;;;;;;;;;5138335;27;20760;-72
2023/10/26 08:14:02;;;;;;;9.30;5.87;;;;;;;;;;5124384;27;20491;-66
2023/10/26 08:16:28;;;;;;;5.97;4.80;;;;;;;;;;5116023;28;20454;-69
2023/10/26 08:18:55;;;;;;;7.53;5.70;;;;;;;;;;5135492;27;20461;-71
2023/10/26 08:21:21;;;;;;;6.10;5.30;;;;;;;;;;5131851;27;20953;-68
2023/10/26 08:23:47;;;;;;;5.40;4.90;;;;;;;;;;5125085;27;20525;-69
2023/10/26 08:26:15;;;;;;;6.40;5.53;;;;;;;;;;5106571;27;20479;-70
2023/10/26 08:28:41;;;;;;;6.00;5.23;;;;;;;;;;5118873;27;20518;-66
2023/10/26 08:31:09;;;;;;;6.00;5.40;;;;;;;;;;5122190;27;20454;-69
2023/10/26 08:33:36;;;;;;;5.77;5.10;;;;;;;;;;5120235;28;20461;-69
2023/10/26 08:36:04;;;;;;;7.27;5.60;;;;;;;;;;5130062;27;20445;-68
2023/10/26 08:38:30;;;;;;;7.87;5.77;;;;;;;;;;5127151;27;20831;-67
2023/10/26 08:40:57;;;;;;;6.13;5.50;;;;;;;;;;5130652;27;20441;-70
2023/10/26 08:43:23;;;;;;;7.80;5.73;;;;;;;;;;5130925;27;20446;-69
2023/10/26 08:45:51;;;;;;;7.43;6.60;;;;;;;;;;5118674;27;20760;-68
2023/10/26 08:48:20;;;;;;;6.50;5.80;;;;;;;;;;5125471;27;21092;-69
2023/10/26 08:50:47;;;;;;;7.17;6.47;;;;;;;;;;5127698;27;20469;-70
2023/10/26 08:53:14;;;;;;;8.10;6.60;;;;;;;;;;5133116;27;20517;-70
2023/10/26 08:55:41;;;;;;;7.33;6.30;;;;;;;;;;5129108;27;20493;-70
2023/10/26 08:58:08;;;;;;;7.33;6.37;;;;;;;;;;5123560;27;20454;-69
2023/10/26 09:00:35;;;;;;;7.20;6.27;;;;;;;;;;5123460;27;20465;-69
2023/10/26 09:03:02;;;;;;;8.50;6.90;;;;;;;;;;5126783;27;20468;-69
2023/10/26 09:05:30;;;;;;;8.23;6.60;;;;;;;;;;5118464;28;20486;-70
2023/10/26 09:07:56;;;;;;;7.17;6.47;;;;;;;;;;5123812;27;20485;-69
2023/10/26 09:10:29;;;;;;;9.30;7.57;;;;;;;;;;5120123;27;20506;-70
2023/10/26 09:12:59;;;;;;;7.13;6.00;;;;;;;;;;5113381;28;20479;-70
2023/10/26 09:15:26;;;;;;;8.30;6.70;;;;;;;;;;5110307;27;20474;-67
2023/10/26 09:17:55;;;;;;;7.93;7.07;;;;;;;;;;5112655;27;20540;-69
2023/10/26 09:20:22;;;;;;;6.10;5.50;;;;;;;;;;5124134;27;20454;-71
2023/10/26 09:22:50;;;;;;;8.47;7.57;;;;;;;;;;5136957;27;20535;-71
2023/10/26 09:25:17;;;;;;;8.17;7.10;;;;;;;;;;5116440;28;20545;-68
2023/10/26 09:27:44;;;;;;;10.50;8.20;;;;;;;;;;5128181;27;20442;-71
2023/10/26 09:30:25;;;;;;;10.83;7.97;;;;;;;;;;5130283;27;20445;-67
2023/10/26 09:32:51;;;;;;;7.43;6.17;;;;;;;;;;5112466;27;20482;-69
2023/10/26 09:35:35;;;;;;;8.67;7.20;;;;;;;;;;5114853;28;21743;-69
2023/10/26 09:38:03;;;;;;;8.27;6.97;;;;;;;;;;5123825;27;21162;-68
2023/10/26 09:40:30;;;;;;;10.37;8.00;;;;;;;;;;5125846;27;20556;-72
2023/10/26 09:42:56;;;;;;;8.47;6.83;;;;;;;;;;5122955;27;20484;-68
2023/10/26 09:45:23;;;;;;;9.30;7.00;;;;;;;;;;5118413;27;20434;-68
2023/10/26 09:47:49;;;;;;;9.80;8.80;;;;;;;;;;5116347;28;20471;-69
2023/10/26 09:50:16;;;;;;;10.77;7.87;;;;;;;;;;5120049;28;20514;-72
2023/10/26 09:52:43;;;;;;;10.23;7.97;;;;;;;;;;5115599;27;20514;-71
2023/10/26 09:55:11;;;;;;;9.93;7.97;;;;;;;;;;5126758;27;20480;-70
2023/10/26 09:57:40;;;;;;;8.67;6.70;;;;;;;;;;5130981;27;20454;-70
2023/10/26 10:00:08;;;;;;;7.90;7.10;;;;;;;;;;5127818;27;20465;-68
2023/10/26 10:02:34;;;;;;;9.90;7.27;;;;;;;;;;5106843;28;20462;-69
2023/10/26 10:05:01;;;;;;;8.63;7.00;;;;;;;;;;5125825;28;20485;-68
2023/10/26 10:07:43;;;;;;;9.27;7.53;;;;;;;;;;5129080;28;20450;-71
2023/10/26 10:10:11;;;;;;;9.40;7.57;;;;;;;;;;5134997;28;20564;-69
2023/10/26 10:12:38;;;;;;;11.17;7.93;;;;;;;;;;5131270;28;20461;-70
2023/10/26 10:15:09;;;;;;;8.83;7.17;;;;;;;;;;5122025;28;20473;-71
2023/10/26 10:17:55;;;;;;;8.30;6.77;;;;;;;;;;5102402;28;20450;-72
2023/10/26 10:20:29;;;;;;;9.20;8.20;;;;;;;;;;5102514;28;20490;-72
2023/10/26 10:22:58;;;;;;;9.90;8.00;;;;;;;;;;5113720;28;20446;-70
2023/10/26 10:25:46;;;;;;;8.07;7.13;;;;;;;;;;5129598;28;20864;-71
2023/10/26 10:28:12;;;;;;;8.53;7.10;;;;;;;;;;5122073;28;20886;-72
2023/10/26 10:30:47;;;;;;;8.10;7.07;;;;;;;;;;5125768;28;20461;-70
2023/10/26 10:33:20;;;;;;;8.60;7.57;;;;;;;;;;5123447;28;20529;-70
2023/10/26 10:35:51;;;;;;;8.37;7.00;;;;;;;;;;5124016;28;20480;-70
2023/10/26 10:38:18;;;;;;;7.57;6.73;;;;;;;;;;5129659;28;20454;-69
2023/10/26 10:41:07;;;;;;;9.57;7.43;;;;;;;;;;5129094;28;20447;-70
2023/10/26 10:43:35;;;;;;;10.57;8.00;;;;;;;;;;5118312;28;20507;-71
2023/10/26 10:46:09;;;;;;;10.43;8.20;;;;;;;;;;5116346;28;20494;-70
2023/10/26 10:48:36;;;;;;;8.90;7.03;;;;;;;;;;5119733;28;20474;-70
2023/10/26 10:51:02;;;;;;;8.97;7.10;;;;;;;;;;5110738;28;21106;-70
2023/10/26 10:53:31;;;;;;;8.70;6.67;;;;;;;;;;5118459;28;20510;-70
2023/10/26 10:55:59;;;;;;;7.53;6.73;;;;;;;;;;5122110;28;20469;-72
2023/10/26 10:58:36;;;;;;;9.17;7.40;;;;;;;;;;5125544;28;20460;-69
2023/10/26 11:01:02;;;;;;;10.57;8.30;;;;;;;;;;5123358;28;20522;-69
2023/10/26 11:03:29;;;;;;;7.10;6.40;;;;;;;;;;5116046;28;20482;-71
2023/10/26 11:05:55;;;;;;;7.97;6.97;;;;;;;;;;5119125;28;20522;-69
2023/10/26 11:08:22;;;;;;;9.33;6.90;;;;;;;;;;5120085;28;20912;-70
2023/10/26 11:10:49;;;;;;;7.67;6.80;;;;;;;;;;5133667;28;20464;-71
2023/10/26 11:13:20;;;;;;;10.57;7.30;;;;;;;;;;5131462;28;20455;-72
2023/10/26 11:15:46;;;;;;;7.00;6.20;;;;;;;;;;5117728;27;21062;-69
2023/10/26 11:18:12;;;;;;;7.80;6.30;;;;;;;;;;5124339;27;20524;-68
2023/10/26 11:20:40;;;;;;;6.30;5.50;;;;;;;;;;5126656;27;20449;-69
2023/10/26 11:23:07;;;;;;;6.43;5.77;;;;;;;;;;5121230;27;20457;-69
2023/10/26 11:25:33;;;;;;;8.00;7.10;;;;;;;;;;5123949;27;20567;-70
2023/10/26 11:28:00;;;;;;;10.00;7.90;;;;;;;;;;5131841;27;21008;-73
2023/10/26 11:30:27;;;;;;;6.83;5.90;;;;;;;;;;5125552;27;20505;-70
2023/10/26 11:32:54;;;;;;;7.93;7.13;;;;;;;;;;5127142;27;20564;-69
2023/10/26 11:35:21;;;;;;;7.83;7.03;;;;;;;;;;5129338;27;20524;-69
2023/10/26 11:37:48;;;;;;;6.30;5.70;;;;;;;;;;5125586;27;20449;-69
2023/10/26 11:40:16;;;;;;;7.00;5.80;;;;;;;;;;5122820;27;20446;-69
2023/10/26 11:42:46;;;;;;;6.20;5.60;;;;;;;;;;5126244;27;20453;-69
2023/10/26 11:45:14;;;;;;;7.10;5.83;;;;;;;;;;5128089;27;20497;-69
2023/10/26 11:47:47;;;;;;;6.60;5.90;;;;;;;;;;5112522;27;20494;-70
2023/10/26 11:50:23;;;;;;;6.33;5.70;;;;;;;;;;5114994;28;20618;-69
2023/10/26 11:52:50;;;;;;;6.40;5.80;;;;;;;;;;5129219;27;20480;-69
2023/10/26 11:55:17;;;;;;;6.50;5.90;;;;;;;;;;5111318;27;21042;-69
2023/10/26 11:57:44;;;;;;;5.37;4.90;;;;;;;;;;5128820;27;20480;-69
2023/10/26 12:00:11;;;;;;;6.50;5.20;;;;;;;;;;5130367;27;20504;-70
2023/10/26 12:02:40;;;;;;;5.40;4.80;;;;;;;;;;5124769;27;20562;-70
2023/10/26 12:05:13;;;;;;;6.60;6.00;;;;;;;;;;5120465;27;20438;-71
2023/10/26 12:07:39;;;;;;;7.30;5.73;;;;;;;;;;5127249;27;20465;-70
2023/10/26 12:10:06;;;;;;;6.00;5.40;;;;;;;;;;5119778;27;20500;-69
2023/10/26 12:12:32;;;;;;;6.90;4.90;;;;;;;;;;5122974;27;20485;-70
2023/10/26 12:14:58;;;;;;;6.47;5.67;;;;;;;;;;5121198;27;20462;-72
2023/10/26 12:17:25;;;;;;;6.80;5.53;;;;;;;;;;5123670;27;20446;-71
2023/10/26 12:19:50;;;;;;;5.90;5.30;;;;;;;;;;5119604;27;20483;-71
2023/10/26 12:22:19;;;;;;;6.30;5.70;;;;;;;;;;5107132;28;20811;-71
2023/10/26 12:24:45;;;;;;;5.80;5.20;;;;;;;;;;5121992;27;20240;-70
2023/10/26 12:27:16;;;;;;;6.90;6.20;;;;;;;;;;5122512;27;21257;-69
2023/10/26 12:29:42;;;;;;;6.00;5.43;;;;;;;;;;5114964;27;20470;-68
2023/10/26 12:32:09;;;;;;;6.57;5.90;;;;;;;;;;5122426;27;20454;-70
2023/10/26 12:34:35;;;;;;;6.90;6.30;;;;;;;;;;5123676;27;20446;-69
2023/10/26 12:37:01;;;;;;;6.47;5.50;;;;;;;;;;5117530;27;20514;-69
2023/10/26 12:39:29;;;;;;;6.73;5.90;;;;;;;;;;5115981;27;20514;-70
2023/10/26 12:41:56;;;;;;;6.30;5.70;;;;;;;;;;5114596;27;20901;-70
2023/10/26 12:44:24;;;;;;;6.17;5.57;;;;;;;;;;5120396;27;20453;-68
2023/10/26 12:46:50;;;;;;;6.10;5.10;;;;;;;;;;5120820;27;20450;-71
2023/10/26 12:49:17;;;;;;;5.67;5.07;;;;;;;;;;5125228;27;20450;-71
2023/10/26 12:51:43;;;;;;;6.53;5.93;;;;;;;;;;5126876;27;20458;-69
2023/10/26 12:54:10;;;;;;;7.10;6.40;;;;;;;;;;5118506;27;20493;-69
2023/10/26 12:56:40;;;;;;;6.70;5.97;;;;;;;;;;5119679;27;21132;-71
2023/10/26 12:59:07;;;;;;;5.40;4.90;;;;;;;;;;5121964;27;20478;-70
2023/10/26 13:01:33;;;;;;;5.57;5.03;;;;;;;;;;5119352;27;20504;-69
2023/10/26 13:03:59;;;;;;;6.87;6.20;;;;;;;;;;5120080;27;20987;-71
2023/10/26 13:06:26;;;;;;;6.50;5.90;;;;;;;;;;5107989;27;20514;-71
2023/10/26 13:08:52;;;;;;;7.70;6.70;;;;;;;;;;5110785;27;20478;-71
2023/10/26 13:11:19;;;;;;;6.97;6.27;;;;;;;;;;5134124;27;20443;-68
2023/10/26 13:13:46;;;;;;;6.60;5.33;;;;;;;;;;5121102;27;20518;-70
2023/10/26 13:16:13;;;;;;;5.83;5.23;;;;;;;;;;5116886;27;20472;-69
2023/10/26 13:18:39;;;;;;;7.20;6.23;;;;;;;;;;5120761;27;20517;-69
2023/10/26 13:21:06;;;;;;;6.17;5.57;;;;;;;;;;5126733;27;20533;-70
2023/10/26 13:23:32;;;;;;;7.43;5.40;;;;;;;;;;5120215;27;20864;-67
2023/10/26 13:25:59;;;;;;;5.97;5.40;;;;;;;;;;5118054;27;20477;-69
2023/10/26 13:28:25;;;;;;;5.70;5.17;;;;;;;;;;5118287;27;21032;-69
2023/10/26 13:30:53;;;;;;;8.17;6.13;;;;;;;;;;5115398;27;20835;-70
2023/10/26 13:33:20;;;;;;;5.80;5.30;;;;;;;;;;5112282;28;20483;-69
2023/10/26 13:35:47;;;;;;;5.63;5.10;;;;;;;;;;5127401;27;20469;-70
2023/10/26 13:38:13;;;;;;;4.90;4.50;;;;;;;;;;5122382;27;20453;-68
2023/10/26 13:40:40;;;;;;;5.20;4.70;;;;;;;;;;5125699;27;20518;-69
2023/10/26 13:43:07;;;;;;;5.20;4.70;;;;;;;;;;5117836;27;20462;-70
2023/10/26 13:45:34;;;;;;;6.60;5.30;;;;;;;;;;5117111;28;20450;-69
2023/10/26 13:48:11;;;;;;;5.10;4.60;;;;;;;;;;5116215;27;20476;-72
2023/10/26 13:50:38;;;;;;;4.90;4.50;;;;;;;;;;5118081;27;20449;-70
2023/10/26 13:53:05;;;;;;;5.93;5.33;;;;;;;;;;5128863;27;20458;-70
2023/10/26 13:55:33;;;;;;;5.33;4.83;;;;;;;;;;5121159;27;20514;-73
2023/10/26 13:58:00;;;;;;;5.93;5.37;;;;;;;;;;5125022;27;20830;-68
2023/10/26 14:00:26;;;;;;;5.60;5.10;;;;;;;;;;5118193;27;20485;-71
2023/10/26 14:02:53;;;;;;;4.93;4.50;;;;;;;;;;5124977;27;20473;-72
2023/10/26 14:05:21;;;;;;;4.63;4.10;;;;;;;;;;5125449;27;20916;-69
2023/10/26 14:07:47;;;;;;;5.10;4.60;;;;;;;;;;5128910;28;20483;-70
2023/10/26 14:10:13;;;;;;;4.90;4.27;;;;;;;;;;5115191;28;20517;-72
2023/10/26 14:12:42;;;;;;;5.13;4.63;;;;;;;;;;5133068;28;20449;-73
2023/10/26 14:15:10;;;;;;;6.30;5.67;;;;;;;;;;5115171;28;20450;-70
2023/10/26 14:17:39;;;;;;;5.40;4.90;;;;;;;;;;5118353;28;20498;-70
2023/10/26 14:20:07;;;;;;;6.20;5.40;;;;;;;;;;5116837;28;20443;-69
2023/10/26 14:22:35;;;;;;;6.07;5.30;;;;;;;;;;5123589;28;20506;-72
2023/10/26 14:25:02;;;;;;;6.30;5.10;;;;;;;;;;5111937;28;20859;-71
2023/10/26 14:27:28;;;;;;;7.77;6.70;;;;;;;;;;5125618;28;20450;-71
2023/10/26 14:29:54;;;;;;;7.13;6.43;;;;;;;;;;5123976;28;20471;-71
2023/10/26 14:32:21;;;;;;;7.93;7.13;;;;;;;;;;5122856;28;20561;-71
2023/10/26 14:34:47;;;;;;;8.37;6.63;;;;;;;;;;5124924;28;20446;-70